Time;durP1;ratioP1;P1;durP2;ratioP2;P2;SDS_P1;SDS_P2;PMS_P1;PMS_P2;Temp;Humidity;BMP_temperature;BMP_pressure;BME280_temperature;BME280_humidity;BME280_pressure;Samples;Min_cycle;Max_cycle;Signal;HPM_P1;HPM_P2
2024/03/16 00:00:44;;;;;;;98.40;50.70;;;;;;;;;;109668;1250;58921;-77
2024/03/16 00:03:31;;;;;;;88.40;46.60;;;;;;;;;;109644;1250;61263;-78
2024/03/16 00:05:58;;;;;;;82.30;45.90;;;;;;;;;;109674;1250;58878;-77
2024/03/16 00:08:24;;;;;;;71.40;41.40;;;;;;;;;;109662;1250;59142;-78
2024/03/16 00:10:50;;;;;;;72.30;39.10;;;;;;;;;;109631;1250;58906;-78
2024/03/16 00:13:17;;;;;;;70.60;38.10;;;;;;;;;;109705;1249;59093;-77
2024/03/16 00:15:47;;;;;;;81.90;42.20;;;;;;;;;;109660;1250;59296;-78
2024/03/16 00:18:13;;;;;;;76.00;40.90;;;;;;;;;;109647;1251;59109;-78
2024/03/16 00:20:40;;;;;;;76.20;41.70;;;;;;;;;;109663;1250;59102;-77
2024/03/16 00:23:07;;;;;;;77.10;43.40;;;;;;;;;;109675;1250;60882;-78
2024/03/16 00:25:33;;;;;;;78.70;45.60;;;;;;;;;;109656;1249;58915;-78
2024/03/16 00:28:00;;;;;;;84.40;45.10;;;;;;;;;;109649;1250;58886;-78
2024/03/16 00:30:26;;;;;;;78.50;45.40;;;;;;;;;;109669;1249;58949;-78
2024/03/16 00:32:54;;;;;;;80.90;42.60;;;;;;;;;;109623;1250;58930;-78
2024/03/16 00:35:20;;;;;;;76.00;42.60;;;;;;;;;;109691;1250;60875;-78
2024/03/16 00:37:47;;;;;;;71.40;40.00;;;;;;;;;;109666;1253;59008;-78
2024/03/16 00:40:15;;;;;;;73.90;39.00;;;;;;;;;;109520;1250;58955;-77
2024/03/16 00:42:41;;;;;;;75.50;39.40;;;;;;;;;;109614;1250;58942;-76
2024/03/16 00:45:07;;;;;;;67.90;38.60;;;;;;;;;;109633;1250;58769;-75
2024/03/16 00:47:34;;;;;;;73.00;41.80;;;;;;;;;;109687;1249;59210;-76
2024/03/16 00:50:00;;;;;;;77.90;42.80;;;;;;;;;;109648;1250;59578;-75
2024/03/16 00:52:26;;;;;;;79.10;42.70;;;;;;;;;;109654;1250;59227;-75
2024/03/16 00:54:52;;;;;;;72.60;40.00;;;;;;;;;;107864;1250;60319;-78
2024/03/16 00:57:18;;;;;;;74.60;38.70;;;;;;;;;;106719;1254;61366;-78
2024/03/16 00:59:45;;;;;;;67.50;39.00;;;;;;;;;;106785;1251;61309;-77
2024/03/16 01:02:11;;;;;;;64.00;37.40;;;;;;;;;;106755;1256;61214;-77
2024/03/16 01:04:37;;;;;;;65.20;36.00;;;;;;;;;;106557;1250;61274;-76
2024/03/16 01:07:03;;;;;;;60.60;30.10;;;;;;;;;;106648;1254;61468;-77
2024/03/16 01:09:29;;;;;;;58.80;29.50;;;;;;;;;;106638;1253;61269;-77
2024/03/16 01:11:56;;;;;;;62.50;32.90;;;;;;;;;;107159;1253;61204;-77
2024/03/16 01:14:23;;;;;;;61.30;33.50;;;;;;;;;;106686;1256;61436;-77
2024/03/16 01:16:49;;;;;;;57.50;30.80;;;;;;;;;;106653;1255;62470;-77
2024/03/16 01:19:15;;;;;;;57.40;32.20;;;;;;;;;;106587;1254;61752;-77
2024/03/16 01:21:42;;;;;;;58.40;29.60;;;;;;;;;;106627;1254;61314;-77
2024/03/16 01:24:08;;;;;;;61.30;31.40;;;;;;;;;;106663;1254;61258;-77
2024/03/16 01:26:34;;;;;;;57.20;30.40;;;;;;;;;;106655;1254;61172;-77
2024/03/16 01:29:03;;;;;;;54.40;29.60;;;;;;;;;;106625;1251;61227;-78
2024/03/16 01:31:30;;;;;;;58.70;32.70;;;;;;;;;;106619;1252;61287;-76
2024/03/16 01:33:56;;;;;;;59.20;32.80;;;;;;;;;;106604;1253;61341;-77
2024/03/16 01:36:23;;;;;;;53.70;32.00;;;;;;;;;;106566;1256;61448;-76
2024/03/16 01:38:49;;;;;;;54.20;29.00;;;;;;;;;;106628;1251;61169;-76
2024/03/16 01:41:15;;;;;;;57.70;29.70;;;;;;;;;;106621;1250;61435;-77
2024/03/16 01:43:45;;;;;;;50.20;26.30;;;;;;;;;;106586;1250;61384;-78
2024/03/16 01:46:15;;;;;;;53.20;29.40;;;;;;;;;;106612;1254;63090;-78
2024/03/16 01:48:45;;;;;;;49.40;27.50;;;;;;;;;;106737;1254;61141;-80
2024/03/16 01:51:12;;;;;;;60.60;31.30;;;;;;;;;;106646;1254;61423;-78
2024/03/16 01:53:38;;;;;;;51.80;29.90;;;;;;;;;;106688;1251;61334;-78
2024/03/16 01:56:05;;;;;;;52.70;28.30;;;;;;;;;;106594;1253;59345;-78
2024/03/16 01:58:34;;;;;;;51.70;30.10;;;;;;;;;;106597;1253;61211;-78
2024/03/16 02:01:01;;;;;;;52.80;28.40;;;;;;;;;;106581;1254;61105;-78
2024/03/16 02:03:27;;;;;;;51.50;28.70;;;;;;;;;;106597;1251;59438;-78
2024/03/16 02:05:53;;;;;;;54.60;26.40;;;;;;;;;;106575;1253;61216;-77
2024/03/16 02:08:19;;;;;;;54.50;28.50;;;;;;;;;;106585;1253;61263;-77
2024/03/16 02:10:46;;;;;;;51.60;31.40;;;;;;;;;;106607;1256;61215;-77
2024/03/16 02:13:12;;;;;;;68.60;37.70;;;;;;;;;;106660;1250;63469;-78
2024/03/16 02:15:38;;;;;;;47.10;27.60;;;;;;;;;;106587;1254;61369;-76
2024/03/16 02:18:04;;;;;;;45.60;27.60;;;;;;;;;;106607;1253;61389;-76
2024/03/16 02:20:31;;;;;;;51.90;28.40;;;;;;;;;;106574;1253;61111;-78
2024/03/16 02:22:57;;;;;;;44.90;27.00;;;;;;;;;;106573;1250;61338;-77
2024/03/16 02:25:23;;;;;;;42.10;23.70;;;;;;;;;;106578;1263;61373;-77
2024/03/16 02:27:50;;;;;;;40.90;25.70;;;;;;;;;;106562;1256;61335;-76
2024/03/16 02:30:16;;;;;;;43.20;25.10;;;;;;;;;;106595;1256;61354;-78
2024/03/16 02:32:42;;;;;;;45.90;23.70;;;;;;;;;;106618;1254;61264;-76
2024/03/16 02:35:09;;;;;;;41.50;23.20;;;;;;;;;;106599;1251;61351;-77
2024/03/16 02:37:35;;;;;;;44.00;25.30;;;;;;;;;;106615;1254;61243;-77
2024/03/16 02:40:03;;;;;;;40.10;23.10;;;;;;;;;;106595;1254;61264;-77
2024/03/16 02:42:30;;;;;;;45.30;25.10;;;;;;;;;;106574;1255;61254;-78
2024/03/16 02:44:56;;;;;;;48.30;26.60;;;;;;;;;;106583;1253;61339;-76
2024/03/16 02:47:22;;;;;;;40.90;24.40;;;;;;;;;;106629;1263;61258;-77
2024/03/16 02:49:50;;;;;;;53.90;28.00;;;;;;;;;;106658;1256;61269;-76
2024/03/16 02:52:16;;;;;;;42.10;24.80;;;;;;;;;;106559;1251;61361;-77
2024/03/16 02:54:43;;;;;;;40.50;24.40;;;;;;;;;;106558;1254;61286;-77
2024/03/16 02:57:09;;;;;;;41.90;24.00;;;;;;;;;;106631;1254;61338;-76
2024/03/16 02:59:36;;;;;;;44.90;24.90;;;;;;;;;;106626;1256;61247;-76
2024/03/16 03:02:02;;;;;;;39.40;23.00;;;;;;;;;;106628;1250;61248;-77
2024/03/16 03:04:28;;;;;;;58.40;24.20;;;;;;;;;;108748;1251;61150;-77
2024/03/16 03:06:54;;;;;;;44.70;25.00;;;;;;;;;;109642;1251;59143;-78
2024/03/16 03:09:21;;;;;;;41.20;23.40;;;;;;;;;;109651;1251;58804;-78
2024/03/16 03:11:48;;;;;;;41.20;25.00;;;;;;;;;;109664;1251;59202;-78
2024/03/16 03:14:15;;;;;;;42.80;24.00;;;;;;;;;;109649;1250;59067;-78
2024/03/16 03:16:41;;;;;;;44.60;23.90;;;;;;;;;;109646;1251;58878;-78
2024/03/16 03:19:07;;;;;;;48.40;23.90;;;;;;;;;;109660;1251;59166;-77
2024/03/16 03:21:33;;;;;;;40.90;23.00;;;;;;;;;;109679;1251;59252;-78
2024/03/16 03:24:00;;;;;;;39.80;23.10;;;;;;;;;;106583;1253;61238;-76
2024/03/16 03:26:29;;;;;;;37.20;21.30;;;;;;;;;;106567;1253;61263;-77
2024/03/16 03:28:55;;;;;;;;;;;;;;;;;;106573;1251;61325;-76
2024/03/16 03:31:21;;;;;;;36.60;19.30;;;;;;;;;;106614;1251;61337;-76
2024/03/16 03:33:47;;;;;;;38.70;21.90;;;;;;;;;;107881;1250;59209;-78
2024/03/16 03:36:15;;;;;;;38.00;22.50;;;;;;;;;;109681;1250;59296;-78
2024/03/16 03:38:41;;;;;;;32.80;19.10;;;;;;;;;;109665;1251;59167;-77
2024/03/16 03:41:08;;;;;;;40.20;22.90;;;;;;;;;;109673;1251;59017;-78
2024/03/16 03:43:36;;;;;;;40.00;23.30;;;;;;;;;;109637;1250;58996;-77
2024/03/16 03:46:04;;;;;;;32.60;19.70;;;;;;;;;;109669;1251;58861;-77
2024/03/16 03:48:41;;;;;;;38.30;21.70;;;;;;;;;;109630;1251;60720;-77
2024/03/16 03:51:07;;;;;;;38.70;21.50;;;;;;;;;;109642;1251;58850;-78
2024/03/16 03:53:33;;;;;;;36.70;21.90;;;;;;;;;;109639;1251;58865;-78
2024/03/16 03:56:00;;;;;;;34.40;20.80;;;;;;;;;;109669;1251;59148;-79
2024/03/16 03:58:26;;;;;;;36.40;19.90;;;;;;;;;;109682;1251;59288;-78
2024/03/16 04:00:52;;;;;;;34.90;20.50;;;;;;;;;;109673;1251;59085;-78
2024/03/16 04:03:19;;;;;;;35.00;20.90;;;;;;;;;;109613;1251;59072;-78
2024/03/16 04:05:45;;;;;;;38.80;23.30;;;;;;;;;;109647;1251;59149;-77
2024/03/16 04:08:11;;;;;;;37.00;20.50;;;;;;;;;;109445;1251;58845;-78
2024/03/16 04:10:38;;;;;;;38.60;22.60;;;;;;;;;;106732;1256;61366;-79
2024/03/16 04:13:04;;;;;;;33.80;20.10;;;;;;;;;;107085;1250;61241;-78
2024/03/16 04:15:31;;;;;;;37.10;19.70;;;;;;;;;;109665;1251;58886;-78
2024/03/16 04:17:57;;;;;;;34.10;20.40;;;;;;;;;;109680;1251;59093;-77
2024/03/16 04:20:23;;;;;;;37.70;20.70;;;;;;;;;;109669;1249;58963;-77
2024/03/16 04:22:49;;;;;;;34.20;20.20;;;;;;;;;;106997;1254;61334;-77
2024/03/16 04:25:16;;;;;;;31.80;20.00;;;;;;;;;;106664;1254;61277;-76
2024/03/16 04:27:46;;;;;;;34.40;21.60;;;;;;;;;;106645;1251;61271;-76
2024/03/16 04:30:13;;;;;;;35.40;19.80;;;;;;;;;;106598;1251;61229;-76
2024/03/16 04:32:39;;;;;;;31.50;19.80;;;;;;;;;;106618;1257;61452;-78
2024/03/16 04:35:05;;;;;;;35.60;20.70;;;;;;;;;;106522;1253;61311;-76
2024/03/16 04:37:33;;;;;;;35.90;20.70;;;;;;;;;;106596;1254;61398;-78
2024/03/16 04:39:59;;;;;;;32.20;20.00;;;;;;;;;;106593;1254;61389;-78
2024/03/16 04:42:26;;;;;;;34.30;22.10;;;;;;;;;;106589;1251;61219;-77
2024/03/16 04:44:52;;;;;;;38.30;23.00;;;;;;;;;;106542;1251;61413;-77
2024/03/16 04:47:18;;;;;;;32.90;19.50;;;;;;;;;;106585;1251;61262;-78
2024/03/16 04:49:47;;;;;;;34.20;20.90;;;;;;;;;;106655;1253;61335;-77
2024/03/16 04:52:15;;;;;;;33.30;19.30;;;;;;;;;;108891;1251;61026;-78
2024/03/16 04:54:41;;;;;;;31.30;18.50;;;;;;;;;;109553;1254;59657;-78
2024/03/16 04:57:08;;;;;;;25.40;15.80;;;;;;;;;;109653;1250;58825;-77
2024/03/16 04:59:34;;;;;;;25.60;15.20;;;;;;;;;;108852;1251;61267;-78
2024/03/16 05:02:00;;;;;;;27.90;16.20;;;;;;;;;;106582;1251;61377;-78
2024/03/16 05:04:26;;;;;;;31.10;16.90;;;;;;;;;;106549;1251;61283;-77
2024/03/16 05:06:53;;;;;;;29.00;17.90;;;;;;;;;;106535;1253;61271;-78
2024/03/16 05:09:19;;;;;;;33.30;19.10;;;;;;;;;;106537;1251;61282;-77
2024/03/16 05:11:45;;;;;;;29.70;17.40;;;;;;;;;;106576;1251;61277;-76
2024/03/16 05:14:12;;;;;;;27.00;15.60;;;;;;;;;;106616;1253;62541;-77
2024/03/16 05:16:38;;;;;;;38.10;24.70;;;;;;;;;;106655;1251;61341;-76
2024/03/16 05:19:04;;;;;;;34.30;23.50;;;;;;;;;;106623;1251;61363;-77
2024/03/16 05:21:31;;;;;;;49.70;29.20;;;;;;;;;;106598;1253;61279;-76
2024/03/16 05:23:57;;;;;;;38.80;25.50;;;;;;;;;;106584;1253;61274;-77
2024/03/16 05:26:23;;;;;;;49.90;30.70;;;;;;;;;;106588;1251;61400;-77
2024/03/16 05:28:49;;;;;;;36.60;24.10;;;;;;;;;;106578;1251;61286;-77
2024/03/16 05:31:16;;;;;;;38.00;23.40;;;;;;;;;;106553;1251;61350;-77
2024/03/16 05:33:42;;;;;;;26.90;17.20;;;;;;;;;;106609;1251;61278;-77
2024/03/16 05:36:14;;;;;;;30.50;17.80;;;;;;;;;;106550;1251;62393;-77
2024/03/16 05:38:45;;;;;;;29.40;19.60;;;;;;;;;;106562;1254;61242;-78
2024/03/16 05:41:12;;;;;;;33.50;18.90;;;;;;;;;;106527;1251;62375;-76
2024/03/16 05:43:39;;;;;;;36.10;22.30;;;;;;;;;;106583;1251;61245;-76
2024/03/16 05:46:05;;;;;;;35.60;20.00;;;;;;;;;;106572;1251;61865;-78
2024/03/16 05:48:31;;;;;;;33.50;20.30;;;;;;;;;;106572;1251;61547;-77
2024/03/16 05:50:57;;;;;;;33.50;21.00;;;;;;;;;;106541;1251;61352;-76
2024/03/16 05:53:24;;;;;;;31.50;20.00;;;;;;;;;;106601;1252;61339;-76
2024/03/16 05:55:50;;;;;;;32.90;18.40;;;;;;;;;;106575;1251;61206;-76
2024/03/16 05:58:16;;;;;;;30.60;19.50;;;;;;;;;;106655;1253;60718;-78
2024/03/16 06:00:44;;;;;;;32.30;20.40;;;;;;;;;;106620;1253;61370;-77
2024/03/16 06:03:10;;;;;;;32.20;21.00;;;;;;;;;;106552;1249;61329;-78
2024/03/16 06:05:36;;;;;;;30.80;20.50;;;;;;;;;;106551;1251;63342;-78
2024/03/16 06:08:04;;;;;;;30.80;19.50;;;;;;;;;;106601;1251;61266;-77
2024/03/16 06:10:31;;;;;;;30.20;18.80;;;;;;;;;;106383;1252;243443;-78
2024/03/16 06:12:58;;;;;;;30.60;18.70;;;;;;;;;;109640;1251;63079;-77
2024/03/16 06:15:24;;;;;;;29.00;18.90;;;;;;;;;;109635;1250;58922;-79
2024/03/16 06:17:50;;;;;;;32.60;20.60;;;;;;;;;;109638;1251;58924;-78
2024/03/16 06:20:17;;;;;;;30.20;20.70;;;;;;;;;;108431;1253;61431;-78
2024/03/16 06:22:44;;;;;;;30.00;19.70;;;;;;;;;;106597;1251;61273;-77
2024/03/16 06:25:12;;;;;;;30.30;19.20;;;;;;;;;;106574;1254;63153;-78
2024/03/16 06:28:14;;;;;;;28.70;17.50;;;;;;;;;;109649;1249;58885;-77
2024/03/16 06:30:31;;;;;;;34.30;17.90;;;;;;;;;;109625;1251;59714;-78
2024/03/16 06:33:11;;;;;;;30.40;17.30;;;;;;;;;;109645;1249;59215;-78
2024/03/16 06:35:41;;;;;;;24.80;16.00;;;;;;;;;;109508;1251;58898;-78
2024/03/16 06:38:07;;;;;;;28.80;18.90;;;;;;;;;;108082;1251;62004;-78
2024/03/16 06:40:34;;;;;;;32.30;18.80;;;;;;;;;;106621;1253;61218;-77
2024/03/16 06:43:00;;;;;;;32.10;20.00;;;;;;;;;;106601;1254;61060;-76
2024/03/16 06:45:26;;;;;;;30.30;19.40;;;;;;;;;;106588;1252;59769;-77
2024/03/16 06:47:53;;;;;;;28.70;17.10;;;;;;;;;;106612;1250;63467;-77
2024/03/16 06:50:21;;;;;;;29.40;18.10;;;;;;;;;;106543;1251;61356;-76
2024/03/16 06:52:47;;;;;;;35.80;21.30;;;;;;;;;;106569;1251;61275;-78
2024/03/16 06:55:17;;;;;;;38.80;26.30;;;;;;;;;;106518;1250;61283;-76
2024/03/16 06:57:44;;;;;;;37.40;26.00;;;;;;;;;;106581;1251;61177;-78
2024/03/16 07:00:11;;;;;;;36.90;23.90;;;;;;;;;;106584;1250;62442;-78
2024/03/16 07:02:37;;;;;;;36.50;22.80;;;;;;;;;;106589;1253;61803;-77
2024/03/16 07:05:04;;;;;;;40.60;26.20;;;;;;;;;;106614;1253;61325;-76
2024/03/16 07:07:30;;;;;;;33.60;22.70;;;;;;;;;;106609;1251;61271;-77
2024/03/16 07:09:57;;;;;;;32.30;20.70;;;;;;;;;;106590;1254;61352;-78
2024/03/16 07:12:24;;;;;;;42.70;24.30;;;;;;;;;;106613;1251;61164;-78
2024/03/16 07:14:50;;;;;;;33.10;21.00;;;;;;;;;;109107;1250;59188;-78
2024/03/16 07:17:16;;;;;;;33.50;21.00;;;;;;;;;;109612;1249;58870;-76
2024/03/16 07:19:42;;;;;;;39.00;26.10;;;;;;;;;;109649;1249;59030;-76
2024/03/16 07:22:08;;;;;;;31.70;20.20;;;;;;;;;;109650;1249;59147;-76
2024/03/16 07:24:35;;;;;;;35.40;23.50;;;;;;;;;;109658;1250;58884;-78
2024/03/16 07:27:01;;;;;;;36.50;22.20;;;;;;;;;;109652;1249;58923;-76
2024/03/16 07:29:28;;;;;;;38.00;25.70;;;;;;;;;;109632;1249;59146;-77
2024/03/16 07:31:54;;;;;;;36.40;22.40;;;;;;;;;;109619;1250;59031;-76
2024/03/16 07:34:21;;;;;;;79.50;47.90;;;;;;;;;;109646;1249;59094;-78
2024/03/16 07:36:48;;;;;;;55.80;35.50;;;;;;;;;;108427;1250;61369;-78
2024/03/16 07:39:15;;;;;;;156.20;75.90;;;;;;;;;;106558;1253;61224;-76
2024/03/16 07:41:41;;;;;;;69.00;39.70;;;;;;;;;;106568;1250;61321;-78
2024/03/16 07:44:07;;;;;;;51.60;35.20;;;;;;;;;;106587;1251;61282;-76
2024/03/16 07:46:33;;;;;;;53.40;34.70;;;;;;;;;;106574;1253;61440;-78
2024/03/16 07:49:00;;;;;;;71.70;42.60;;;;;;;;;;106593;1250;61371;-76
2024/03/16 07:51:28;;;;;;;115.50;59.50;;;;;;;;;;106736;1254;63794;-76
2024/03/16 07:53:55;;;;;;;91.50;50.10;;;;;;;;;;106841;1250;61257;-78
2024/03/16 07:56:21;;;;;;;62.80;34.80;;;;;;;;;;106870;1250;61220;-76
2024/03/16 07:58:48;;;;;;;51.70;31.30;;;;;;;;;;106923;1253;62411;-78
2024/03/16 08:01:15;;;;;;;36.90;22.50;;;;;;;;;;106781;1249;61328;-76
2024/03/16 08:03:44;;;;;;;40.60;25.50;;;;;;;;;;109598;1249;61897;-77
2024/03/16 08:06:10;;;;;;;;;;;;;;;;;;109631;1249;59261;-78
2024/03/16 08:08:37;;;;;;;40.40;25.40;;;;;;;;;;109642;1249;58861;-78
2024/03/16 08:11:07;;;;;;;34.40;23.70;;;;;;;;;;109580;1249;58897;-77
2024/03/16 08:13:34;;;;;;;51.80;36.30;;;;;;;;;;109673;1249;59077;-78
2024/03/16 08:16:00;;;;;;;36.40;24.60;;;;;;;;;;109758;1250;60384;-77
2024/03/16 08:18:27;;;;;;;35.10;19.20;;;;;;;;;;109554;1248;59158;-77
2024/03/16 08:20:57;;;;;;;35.30;21.00;;;;;;;;;;108435;1250;59493;-77
2024/03/16 08:23:24;;;;;;;34.50;21.90;;;;;;;;;;109539;1249;58860;-77
2024/03/16 08:25:51;;;;;;;39.00;22.50;;;;;;;;;;109620;1249;58940;-77
2024/03/16 08:28:17;;;;;;;42.50;27.70;;;;;;;;;;109655;1249;58877;-77
2024/03/16 08:30:43;;;;;;;46.70;32.60;;;;;;;;;;109637;1249;59126;-78
2024/03/16 08:33:09;;;;;;;39.40;24.70;;;;;;;;;;109603;1249;59494;-77
2024/03/16 08:35:36;;;;;;;38.60;23.60;;;;;;;;;;108687;1249;61209;-78
2024/03/16 08:38:02;;;;;;;47.90;30.80;;;;;;;;;;106754;1249;61205;-76
2024/03/16 08:40:28;;;;;;;52.80;35.70;;;;;;;;;;106673;1250;61407;-78
2024/03/16 08:42:54;;;;;;;36.80;24.70;;;;;;;;;;107790;1250;61254;-79
2024/03/16 08:45:21;;;;;;;41.50;26.80;;;;;;;;;;109574;1248;59058;-77
2024/03/16 08:47:47;;;;;;;37.40;26.70;;;;;;;;;;109616;1249;58929;-77
2024/03/16 08:50:13;;;;;;;43.10;29.90;;;;;;;;;;109716;1249;59210;-78
2024/03/16 08:52:39;;;;;;;28.20;20.70;;;;;;;;;;109635;1249;58969;-77
2024/03/16 08:55:06;;;;;;;30.90;20.80;;;;;;;;;;109615;1249;59091;-78
2024/03/16 08:57:32;;;;;;;27.70;20.10;;;;;;;;;;109673;1250;59269;-77
2024/03/16 08:59:58;;;;;;;35.00;23.60;;;;;;;;;;109662;1249;60012;-77
2024/03/16 09:02:24;;;;;;;38.10;24.70;;;;;;;;;;109728;1250;59046;-79
2024/03/16 09:04:51;;;;;;;29.70;21.10;;;;;;;;;;109627;1249;58940;-79
2024/03/16 09:07:19;;;;;;;28.00;18.50;;;;;;;;;;107871;1250;61303;-79
2024/03/16 09:09:46;;;;;;;38.60;28.70;;;;;;;;;;106695;1249;61263;-76
2024/03/16 09:12:12;;;;;;;25.20;16.20;;;;;;;;;;106682;1250;61092;-76
2024/03/16 09:14:38;;;;;;;26.60;16.80;;;;;;;;;;106749;1250;61361;-76
2024/03/16 09:17:05;;;;;;;25.80;18.10;;;;;;;;;;106733;1248;61382;-76
2024/03/16 09:19:32;;;;;;;44.70;32.10;;;;;;;;;;106653;1254;61363;-80
2024/03/16 09:21:58;;;;;;;68.00;46.80;;;;;;;;;;106646;1250;61129;-78
2024/03/16 09:24:25;;;;;;;47.70;34.60;;;;;;;;;;106573;1250;61296;-78
2024/03/16 09:26:51;;;;;;;54.70;39.00;;;;;;;;;;106578;1251;61347;-78
2024/03/16 09:29:18;;;;;;;54.90;38.80;;;;;;;;;;106640;1250;61108;-76
2024/03/16 09:31:44;;;;;;;40.40;27.40;;;;;;;;;;106617;1251;61595;-78
2024/03/16 09:34:11;;;;;;;38.50;26.10;;;;;;;;;;106642;1251;62421;-76
2024/03/16 09:36:37;;;;;;;39.30;27.40;;;;;;;;;;106707;1250;63049;-78
2024/03/16 09:39:13;;;;;;;58.80;32.60;;;;;;;;;;106657;1250;61337;-77
2024/03/16 09:41:39;;;;;;;28.20;17.40;;;;;;;;;;106703;1253;61308;-77
2024/03/16 09:44:11;;;;;;;30.10;17.40;;;;;;;;;;106606;1253;61195;-77
2024/03/16 09:46:38;;;;;;;19.90;15.80;;;;;;;;;;106599;1253;59567;-76
2024/03/16 09:49:05;;;;;;;33.90;20.70;;;;;;;;;;106627;1250;61162;-76
2024/03/16 09:51:31;;;;;;;33.30;18.00;;;;;;;;;;106625;1249;61916;-76
2024/03/16 09:53:57;;;;;;;28.70;16.00;;;;;;;;;;106629;1250;61190;-76
2024/03/16 09:56:24;;;;;;;19.00;13.10;;;;;;;;;;106591;1254;60713;-76
2024/03/16 09:58:50;;;;;;;14.70;10.80;;;;;;;;;;106632;1250;61344;-76
2024/03/16 10:01:16;;;;;;;15.40;11.00;;;;;;;;;;106664;1254;61296;-77
2024/03/16 10:03:44;;;;;;;17.60;11.20;;;;;;;;;;106584;1253;61352;-77
2024/03/16 10:06:15;;;;;;;19.00;11.60;;;;;;;;;;106623;1250;62003;-79
2024/03/16 10:08:43;;;;;;;16.10;11.20;;;;;;;;;;106624;1250;61217;-76
2024/03/16 10:11:10;;;;;;;19.20;12.40;;;;;;;;;;106650;1254;61302;-78
2024/03/16 10:13:39;;;;;;;27.90;19.00;;;;;;;;;;106684;1249;62010;-76
2024/03/16 10:16:09;;;;;;;63.40;39.00;;;;;;;;;;106626;1253;62683;-76
2024/03/16 10:18:35;;;;;;;42.90;26.50;;;;;;;;;;106640;1254;61280;-78
2024/03/16 10:21:02;;;;;;;18.60;11.20;;;;;;;;;;106633;1254;61330;-78
2024/03/16 10:23:29;;;;;;;15.20;10.60;;;;;;;;;;107409;1250;61201;-78
2024/03/16 10:25:56;;;;;;;15.10;9.70;;;;;;;;;;109453;1249;58902;-78
2024/03/16 10:28:22;;;;;;;16.20;11.10;;;;;;;;;;106646;1249;61343;-78
2024/03/16 10:30:49;;;;;;;14.90;10.30;;;;;;;;;;106645;1250;61266;-76
2024/03/16 10:33:18;;;;;;;16.90;11.40;;;;;;;;;;106657;1249;60960;-78
2024/03/16 10:35:45;;;;;;;19.70;13.10;;;;;;;;;;106573;1253;61158;-77
2024/03/16 10:38:12;;;;;;;15.50;11.50;;;;;;;;;;106610;1250;61250;-76
2024/03/16 10:40:39;;;;;;;17.30;11.90;;;;;;;;;;106626;1250;61850;-77
2024/03/16 10:43:08;;;;;;;42.90;24.10;;;;;;;;;;106632;1251;61306;-76
2024/03/16 10:45:34;;;;;;;24.80;15.20;;;;;;;;;;106618;1252;60589;-77
2024/03/16 10:48:03;;;;;;;39.60;18.60;;;;;;;;;;106680;1254;61257;-76
2024/03/16 10:50:30;;;;;;;37.50;19.90;;;;;;;;;;106598;1250;61246;-77
2024/03/16 10:52:56;;;;;;;20.60;14.50;;;;;;;;;;106600;1250;62668;-78
2024/03/16 10:55:23;;;;;;;16.30;11.00;;;;;;;;;;106595;1250;62073;-78
2024/03/16 10:57:50;;;;;;;15.80;11.00;;;;;;;;;;106668;1250;62029;-78
2024/03/16 11:00:35;;;;;;;16.40;11.60;;;;;;;;;;106643;1253;62859;-78
2024/03/16 11:03:12;;;;;;;15.90;9.20;;;;;;;;;;106752;1250;62137;-77
2024/03/16 11:05:54;;;;;;;11.70;7.80;;;;;;;;;;106621;1255;63772;-76
2024/03/16 11:08:23;;;;;;;9.80;6.50;;;;;;;;;;106633;1253;62092;-78
2024/03/16 11:10:52;;;;;;;9.80;6.70;;;;;;;;;;106589;1249;62147;-78
2024/03/16 11:13:22;;;;;;;11.10;8.20;;;;;;;;;;106696;1254;62128;-76
2024/03/16 11:15:48;;;;;;;21.30;13.00;;;;;;;;;;106626;1250;62122;-78
2024/03/16 11:18:18;;;;;;;19.80;12.10;;;;;;;;;;106639;1250;62068;-76
2024/03/16 11:20:50;;;;;;;14.60;8.70;;;;;;;;;;106654;1253;62123;-79
2024/03/16 11:23:29;;;;;;;9.90;5.90;;;;;;;;;;106716;1251;62106;-78
2024/03/16 11:26:00;;;;;;;20.10;11.70;;;;;;;;;;106615;1250;62064;-78
2024/03/16 11:28:42;;;;;;;22.40;13.70;;;;;;;;;;106617;1251;62064;-78
2024/03/16 11:31:48;;;;;;;9.60;6.30;;;;;;;;;;106631;1250;63231;-78
2024/03/16 11:34:19;;;;;;;17.30;9.30;;;;;;;;;;106641;1250;62064;-77
2024/03/16 11:36:49;;;;;;;15.60;8.40;;;;;;;;;;106648;1249;63070;-78
2024/03/16 11:39:24;;;;;;;13.20;7.80;;;;;;;;;;106681;1251;62170;-76
2024/03/16 11:41:53;;;;;;;21.80;10.70;;;;;;;;;;106656;1253;62343;-76
2024/03/16 11:44:20;;;;;;;31.80;11.30;;;;;;;;;;106704;1250;62731;-78
2024/03/16 11:46:47;;;;;;;9.70;6.00;;;;;;;;;;106639;1251;62067;-78
2024/03/16 11:49:14;;;;;;;18.10;8.20;;;;;;;;;;106656;1251;62087;-78
2024/03/16 11:51:47;;;;;;;15.10;6.60;;;;;;;;;;106677;1249;62147;-76
2024/03/16 11:54:14;;;;;;;13.30;6.40;;;;;;;;;;106609;1254;61937;-78
2024/03/16 11:56:41;;;;;;;11.10;6.30;;;;;;;;;;109621;1249;62363;-79
2024/03/16 11:59:11;;;;;;;12.20;5.60;;;;;;;;;;108336;1250;61952;-79
2024/03/16 12:01:37;;;;;;;10.30;5.00;;;;;;;;;;106519;1254;62417;-79
2024/03/16 12:04:03;;;;;;;14.10;5.90;;;;;;;;;;106538;1254;62113;-79
2024/03/16 12:06:30;;;;;;;10.60;6.10;;;;;;;;;;106556;1254;62026;-77
2024/03/16 12:08:57;;;;;;;11.70;7.70;;;;;;;;;;106666;1251;62087;-78
2024/03/16 12:11:23;;;;;;;7.40;4.80;;;;;;;;;;106804;1251;62147;-77
2024/03/16 12:13:51;;;;;;;10.20;5.20;;;;;;;;;;107058;1251;62015;-79
2024/03/16 12:16:18;;;;;;;7.90;5.10;;;;;;;;;;106815;1251;62164;-77
2024/03/16 12:18:44;;;;;;;7.80;6.00;;;;;;;;;;106924;1251;62167;-77
2024/03/16 12:21:12;;;;;;;8.00;3.80;;;;;;;;;;106987;1251;62400;-77
2024/03/16 12:23:45;;;;;;;4.10;3.30;;;;;;;;;;106934;1250;61972;-79
2024/03/16 12:26:11;;;;;;;8.00;3.50;;;;;;;;;;106801;1254;62116;-79
2024/03/16 12:28:38;;;;;;;7.00;4.10;;;;;;;;;;106723;1250;62128;-77
2024/03/16 12:31:04;;;;;;;9.00;5.30;;;;;;;;;;106592;1250;62138;-78
2024/03/16 12:33:31;;;;;;;29.80;8.10;;;;;;;;;;106606;1252;62074;-78
2024/03/16 12:35:57;;;;;;;10.00;5.60;;;;;;;;;;106525;1251;61962;-77
2024/03/16 12:38:24;;;;;;;6.20;3.30;;;;;;;;;;106478;1250;62167;-77
2024/03/16 12:40:50;;;;;;;5.80;3.60;;;;;;;;;;106455;1250;62166;-79
2024/03/16 12:43:17;;;;;;;6.40;3.70;;;;;;;;;;106468;1250;62684;-80
2024/03/16 12:45:44;;;;;;;9.00;4.10;;;;;;;;;;106424;1254;62689;-77
2024/03/16 12:48:10;;;;;;;12.20;4.30;;;;;;;;;;106446;1250;62123;-80
2024/03/16 12:50:36;;;;;;;6.70;3.90;;;;;;;;;;106430;1249;62180;-77
2024/03/16 12:53:03;;;;;;;7.50;3.60;;;;;;;;;;106431;1250;62077;-80
2024/03/16 12:55:29;;;;;;;7.10;4.00;;;;;;;;;;106472;1250;62063;-77
2024/03/16 12:57:56;;;;;;;5.30;3.80;;;;;;;;;;106424;1250;62137;-80
2024/03/16 13:00:22;;;;;;;11.60;5.90;;;;;;;;;;106505;1254;61896;-79
2024/03/16 13:02:50;;;;;;;8.70;4.30;;;;;;;;;;106430;1250;62079;-79
2024/03/16 13:05:16;;;;;;;7.20;4.30;;;;;;;;;;106421;1250;62060;-77
2024/03/16 13:07:42;;;;;;;21.00;15.00;;;;;;;;;;106393;1250;61994;-79
2024/03/16 13:10:09;;;;;;;14.70;7.70;;;;;;;;;;106443;1250;62135;-76
2024/03/16 13:12:35;;;;;;;9.10;5.40;;;;;;;;;;106395;1251;62125;-78
2024/03/16 13:15:02;;;;;;;11.30;6.50;;;;;;;;;;106401;1250;62050;-77
2024/03/16 13:17:28;;;;;;;14.20;7.40;;;;;;;;;;106380;1250;62066;-78
2024/03/16 13:19:55;;;;;;;8.10;5.00;;;;;;;;;;106414;1250;62109;-78
2024/03/16 13:22:22;;;;;;;10.40;5.50;;;;;;;;;;106450;1250;62058;-76
2024/03/16 13:24:48;;;;;;;8.20;5.10;;;;;;;;;;106361;1253;62096;-78
2024/03/16 13:27:15;;;;;;;5.40;4.20;;;;;;;;;;106370;1251;62011;-78
2024/03/16 13:29:41;;;;;;;7.90;4.90;;;;;;;;;;106412;1250;62032;-77
2024/03/16 13:32:07;;;;;;;15.10;8.10;;;;;;;;;;106414;1254;62094;-78
2024/03/16 13:34:34;;;;;;;6.70;3.80;;;;;;;;;;106376;1251;62090;-78
2024/03/16 13:37:00;;;;;;;7.80;3.90;;;;;;;;;;106554;1254;62154;-78
2024/03/16 13:39:27;;;;;;;6.50;4.30;;;;;;;;;;106433;1254;62157;-76
2024/03/16 13:41:53;;;;;;;6.20;4.20;;;;;;;;;;106415;1250;62046;-77
2024/03/16 13:44:19;;;;;;;8.20;4.50;;;;;;;;;;106433;1250;62085;-78
2024/03/16 13:46:45;;;;;;;6.70;4.20;;;;;;;;;;106398;1250;62157;-78
2024/03/16 13:49:15;;;;;;;6.20;4.20;;;;;;;;;;106420;1253;62039;-76
2024/03/16 13:51:41;;;;;;;6.20;4.20;;;;;;;;;;106373;1250;62087;-77
2024/03/16 13:54:07;;;;;;;9.10;4.00;;;;;;;;;;106353;1251;62173;-78
2024/03/16 13:56:34;;;;;;;5.90;4.10;;;;;;;;;;106401;1250;62083;-78
2024/03/16 13:59:00;;;;;;;60.50;23.90;;;;;;;;;;106433;1250;62083;-77
2024/03/16 14:01:28;;;;;;;8.00;5.00;;;;;;;;;;106442;1250;62218;-76
2024/03/16 14:03:56;;;;;;;6.20;3.30;;;;;;;;;;106417;1250;62043;-77
2024/03/16 14:06:23;;;;;;;10.00;4.80;;;;;;;;;;106401;1254;62029;-78
2024/03/16 14:08:49;;;;;;;11.80;5.60;;;;;;;;;;106451;1250;61969;-78